Time;durP1;ratioP1;P1;durP2;ratioP2;P2;SDS_P1;SDS_P2;PMS_P1;PMS_P2;Temp;Humidity;BMP_temperature;BMP_pressure;BME280_temperature;BME280_humidity;BME280_pressure;Samples;Min_cycle;Max_cycle;Signal;HPM_P1;HPM_P2
2021/10/06 00:00:27;;;;;;;926.78;785.13;;;;;;;;;;5005896;28;20041;-76
2021/10/06 00:02:53;;;;;;;927.00;786.35;;;;;;;;;;4999601;28;20048;-76
2021/10/06 00:05:19;;;;;;;925.38;780.83;;;;;;;;;;5001794;28;20117;-75
2021/10/06 00:07:45;;;;;;;921.63;774.75;;;;;;;;;;5002816;28;20096;-77
2021/10/06 00:10:11;;;;;;;931.15;785.58;;;;;;;;;;5002953;28;20083;-76
2021/10/06 00:12:37;;;;;;;923.10;772.22;;;;;;;;;;5001386;28;20466;-77
2021/10/06 00:15:04;;;;;;;928.75;780.38;;;;;;;;;;5003086;28;20037;-77
2021/10/06 00:17:30;;;;;;;924.45;771.22;;;;;;;;;;5001173;28;20223;-76
2021/10/06 00:19:56;;;;;;;923.00;773.40;;;;;;;;;;5003946;28;20095;-78
2021/10/06 00:22:23;;;;;;;928.78;784.25;;;;;;;;;;5000574;28;20322;-76
2021/10/06 00:24:49;;;;;;;925.47;778.28;;;;;;;;;;5002374;28;20053;-76
2021/10/06 00:27:15;;;;;;;923.83;772.10;;;;;;;;;;5004354;28;20402;-77
2021/10/06 00:29:41;;;;;;;926.15;782.30;;;;;;;;;;5004150;28;20164;-76
2021/10/06 00:32:07;;;;;;;927.80;780.50;;;;;;;;;;5017456;28;20033;-75
2021/10/06 00:34:33;;;;;;;925.65;775.45;;;;;;;;;;5002560;28;20371;-77
2021/10/06 00:36:59;;;;;;;923.55;775.58;;;;;;;;;;5003662;28;20030;-77
2021/10/06 00:39:25;;;;;;;928.83;779.80;;;;;;;;;;4999673;28;20034;-76
2021/10/06 00:41:51;;;;;;;924.45;774.78;;;;;;;;;;5001316;28;20069;-77
2021/10/06 00:44:18;;;;;;;919.53;767.80;;;;;;;;;;5003620;28;20049;-76
2021/10/06 00:46:45;;;;;;;922.17;773.47;;;;;;;;;;5002270;28;20046;-78
2021/10/06 00:49:12;;;;;;;945.55;770.72;;;;;;;;;;5002595;28;20034;-77
2021/10/06 00:51:39;;;;;;;916.75;771.92;;;;;;;;;;4999348;28;20030;-75
2021/10/06 00:54:05;;;;;;;926.60;781.47;;;;;;;;;;5001047;28;20026;-76
2021/10/06 00:56:31;;;;;;;926.88;781.95;;;;;;;;;;5003169;28;20033;-76
2021/10/06 00:58:57;;;;;;;930.20;789.42;;;;;;;;;;5002132;28;20401;-76
2021/10/06 01:01:23;;;;;;;929.63;790.30;;;;;;;;;;5014842;28;20242;-76
2021/10/06 01:03:49;;;;;;;920.70;785.75;;;;;;;;;;5002538;28;20044;-75
2021/10/06 01:06:15;;;;;;;925.30;786.17;;;;;;;;;;5001390;28;20418;-76
2021/10/06 01:08:42;;;;;;;925.28;790.08;;;;;;;;;;5001917;28;20033;-76
2021/10/06 01:11:10;;;;;;;922.65;780.05;;;;;;;;;;5002650;28;20115;-77
2021/10/06 01:13:36;;;;;;;923.05;786.75;;;;;;;;;;5002011;28;20026;-77
2021/10/06 01:16:02;;;;;;;927.92;795.70;;;;;;;;;;5001565;28;20112;-75
2021/10/06 01:18:28;;;;;;;923.58;787.20;;;;;;;;;;5001140;28;20242;-76
2021/10/06 01:20:55;;;;;;;930.00;793.47;;;;;;;;;;4999747;28;20748;-77
2021/10/06 01:23:21;;;;;;;931.65;791.22;;;;;;;;;;4998581;28;20095;-76
2021/10/06 01:25:47;;;;;;;921.22;780.05;;;;;;;;;;4999853;28;20037;-76
2021/10/06 01:28:13;;;;;;;929.47;793.15;;;;;;;;;;5000323;28;20025;-77
2021/10/06 01:30:39;;;;;;;928.40;796.38;;;;;;;;;;5000463;28;20274;-77
2021/10/06 01:33:05;;;;;;;927.65;789.65;;;;;;;;;;5000761;28;20033;-76
2021/10/06 01:35:31;;;;;;;927.40;795.08;;;;;;;;;;5000093;28;20452;-76
2021/10/06 01:37:58;;;;;;;928.95;795.30;;;;;;;;;;5008526;28;20026;-76
2021/10/06 01:40:24;;;;;;;932.55;800.55;;;;;;;;;;5001452;28;20030;-78
2021/10/06 01:42:52;;;;;;;929.85;800.20;;;;;;;;;;4999958;28;20486;-76
2021/10/06 01:45:23;;;;;;;927.05;794.17;;;;;;;;;;5002400;28;20061;-79
2021/10/06 01:47:49;;;;;;;928.30;793.33;;;;;;;;;;5002352;28;20375;-77
2021/10/06 01:50:33;;;;;;;930.63;797.08;;;;;;;;;;5000790;28;20105;-76
2021/10/06 01:53:00;;;;;;;927.92;790.35;;;;;;;;;;4999289;28;20441;-77
2021/10/06 01:55:31;;;;;;;921.75;784.97;;;;;;;;;;4999634;28;20018;-81
2021/10/06 01:57:57;;;;;;;926.25;791.17;;;;;;;;;;5001026;28;20468;-77
2021/10/06 02:00:24;;;;;;;930.28;790.25;;;;;;;;;;4998063;28;20517;-77
2021/10/06 02:02:50;;;;;;;927.45;801.20;;;;;;;;;;4999875;28;20183;-76
2021/10/06 02:05:16;;;;;;;925.75;792.45;;;;;;;;;;5001995;28;21489;-75
2021/10/06 02:07:42;;;;;;;923.92;787.83;;;;;;;;;;5001639;28;20401;-76
2021/10/06 02:10:08;;;;;;;925.42;791.88;;;;;;;;;;5015335;28;20042;-76
2021/10/06 02:12:34;;;;;;;927.95;786.63;;;;;;;;;;4999305;28;20030;-77
2021/10/06 02:15:00;;;;;;;927.92;794.15;;;;;;;;;;5000639;28;20026;-77
2021/10/06 02:17:26;;;;;;;923.45;783.95;;;;;;;;;;5001270;28;20026;-75
2021/10/06 02:19:52;;;;;;;930.20;796.28;;;;;;;;;;5000803;28;20041;-76
2021/10/06 02:22:18;;;;;;;932.20;797.28;;;;;;;;;;5003071;28;20061;-76
2021/10/06 02:24:44;;;;;;;925.45;787.50;;;;;;;;;;5003008;28;20033;-77
2021/10/06 02:27:11;;;;;;;925.97;785.40;;;;;;;;;;5004205;28;20040;-75
2021/10/06 02:29:37;;;;;;;934.20;806.53;;;;;;;;;;5005537;28;20038;-75
2021/10/06 02:32:03;;;;;;;929.50;796.83;;;;;;;;;;5004092;28;20025;-75
2021/10/06 02:34:29;;;;;;;930.00;797.65;;;;;;;;;;5003667;28;20026;-75
2021/10/06 02:36:55;;;;;;;932.13;805.40;;;;;;;;;;5005176;28;20041;-80
2021/10/06 02:39:21;;;;;;;934.72;804.30;;;;;;;;;;5005014;28;20033;-76
2021/10/06 02:41:47;;;;;;;926.78;784.83;;;;;;;;;;4997614;28;20077;-77
2021/10/06 02:44:13;;;;;;;932.22;797.17;;;;;;;;;;5004799;28;20549;-77
2021/10/06 02:46:39;;;;;;;930.78;798.88;;;;;;;;;;5013250;28;20377;-77
2021/10/06 02:49:05;;;;;;;933.88;798.28;;;;;;;;;;5003394;28;20537;-76
2021/10/06 02:51:31;;;;;;;931.92;794.53;;;;;;;;;;5002230;28;20552;-78
2021/10/06 02:53:57;;;;;;;935.50;798.70;;;;;;;;;;5002936;28;20474;-77
2021/10/06 02:56:23;;;;;;;930.50;788.65;;;;;;;;;;5002073;28;20579;-76
2021/10/06 02:58:49;;;;;;;925.13;783.50;;;;;;;;;;5004384;28;20021;-77
2021/10/06 03:01:15;;;;;;;932.58;795.38;;;;;;;;;;5002808;28;20373;-76
2021/10/06 03:03:41;;;;;;;929.65;790.35;;;;;;;;;;5036616;28;20030;-77
2021/10/06 03:06:08;;;;;;;935.72;794.83;;;;;;;;;;5005241;28;20631;-76
2021/10/06 03:08:34;;;;;;;928.20;788.40;;;;;;;;;;5001493;28;20631;-77
2021/10/06 03:11:01;;;;;;;928.83;791.03;;;;;;;;;;5005250;28;20461;-77
2021/10/06 03:13:27;;;;;;;924.25;779.97;;;;;;;;;;5003402;28;20040;-77
2021/10/06 03:15:54;;;;;;;928.72;786.05;;;;;;;;;;5003306;28;20035;-77
2021/10/06 03:18:20;;;;;;;931.15;796.40;;;;;;;;;;5003421;28;20033;-78
2021/10/06 03:20:46;;;;;;;931.17;789.25;;;;;;;;;;5002716;28;20057;-76
2021/10/06 03:23:12;;;;;;;928.63;786.45;;;;;;;;;;5003110;28;20461;-77
2021/10/06 03:25:38;;;;;;;926.97;779.72;;;;;;;;;;5004445;28;20057;-76
2021/10/06 03:28:04;;;;;;;931.53;789.70;;;;;;;;;;5002434;28;20034;-77
2021/10/06 03:30:30;;;;;;;922.75;777.55;;;;;;;;;;5004643;28;20033;-78
2021/10/06 03:32:56;;;;;;;929.22;779.38;;;;;;;;;;5004058;28;20041;-78
2021/10/06 03:35:23;;;;;;;927.90;776.88;;;;;;;;;;5002814;28;20038;-77
2021/10/06 03:37:49;;;;;;;926.90;781.30;;;;;;;;;;5002987;28;20315;-76
2021/10/06 03:40:16;;;;;;;934.83;795.83;;;;;;;;;;5003308;28;20072;-78
2021/10/06 03:42:42;;;;;;;935.92;798.10;;;;;;;;;;5003315;28;20054;-77
2021/10/06 03:45:09;;;;;;;934.55;795.92;;;;;;;;;;5002570;28;20041;-76
2021/10/06 03:47:35;;;;;;;940.67;803.50;;;;;;;;;;5003309;28;20080;-78
2021/10/06 03:50:01;;;;;;;936.67;797.30;;;;;;;;;;5003374;28;20025;-77
2021/10/06 03:52:27;;;;;;;944.30;798.92;;;;;;;;;;5004071;28;20109;-77
2021/10/06 03:54:53;;;;;;;940.60;794.33;;;;;;;;;;5003693;28;20230;-78
2021/10/06 03:57:19;;;;;;;936.42;797.17;;;;;;;;;;5003701;28;20030;-77
2021/10/06 03:59:46;;;;;;;934.17;784.17;;;;;;;;;;5003400;28;20065;-77
2021/10/06 04:02:12;;;;;;;938.85;796.55;;;;;;;;;;5004842;28;20054;-76
2021/10/06 04:04:38;;;;;;;933.50;789.17;;;;;;;;;;5004459;28;20581;-76
2021/10/06 04:07:04;;;;;;;932.90;783.30;;;;;;;;;;5000968;28;20449;-77
2021/10/06 04:09:30;;;;;;;934.60;788.53;;;;;;;;;;5014380;28;20045;-78
2021/10/06 04:11:56;;;;;;;931.17;786.30;;;;;;;;;;5005022;28;20026;-77
2021/10/06 04:14:22;;;;;;;929.67;786.58;;;;;;;;;;5000880;28;20025;-79
2021/10/06 04:16:48;;;;;;;927.97;776.75;;;;;;;;;;5000979;28;20026;-76
2021/10/06 04:19:14;;;;;;;937.88;791.47;;;;;;;;;;5002564;28;20034;-77
2021/10/06 04:21:40;;;;;;;935.63;793.83;;;;;;;;;;5002337;28;20033;-77
2021/10/06 04:24:06;;;;;;;934.97;788.33;;;;;;;;;;5000269;28;20105;-77
2021/10/06 04:26:32;;;;;;;930.58;787.17;;;;;;;;;;5003541;28;20041;-78
2021/10/06 04:28:58;;;;;;;938.70;796.25;;;;;;;;;;4998804;28;20037;-79
2021/10/06 04:31:24;;;;;;;936.30;789.72;;;;;;;;;;5000941;28;20088;-78
2021/10/06 04:33:50;;;;;;;938.05;795.58;;;;;;;;;;5016599;28;20074;-78
2021/10/06 04:36:17;;;;;;;930.90;789.72;;;;;;;;;;5002997;28;20022;-80
2021/10/06 04:38:43;;;;;;;926.72;776.28;;;;;;;;;;4997049;28;20077;-79
2021/10/06 04:41:09;;;;;;;926.10;778.13;;;;;;;;;;5005613;28;20483;-78
2021/10/06 04:43:35;;;;;;;923.38;775.78;;;;;;;;;;5001289;28;20041;-78
2021/10/06 04:46:01;;;;;;;925.03;771.75;;;;;;;;;;4999335;28;20060;-78
2021/10/06 04:48:27;;;;;;;926.88;774.33;;;;;;;;;;5001845;28;20072;-76
2021/10/06 04:50:53;;;;;;;925.45;774.30;;;;;;;;;;5004201;28;20033;-79
2021/10/06 04:53:19;;;;;;;928.05;776.25;;;;;;;;;;4998947;28;20033;-77
2021/10/06 04:55:46;;;;;;;922.72;768.85;;;;;;;;;;5002966;28;20124;-79
2021/10/06 04:58:12;;;;;;;926.70;774.17;;;;;;;;;;5002296;28;20033;-78
2021/10/06 05:00:38;;;;;;;929.20;779.45;;;;;;;;;;5019061;28;20054;-78
2021/10/06 05:03:08;;;;;;;933.65;789.05;;;;;;;;;;5031088;28;20034;-79
2021/10/06 05:05:34;;;;;;;933.20;783.80;;;;;;;;;;5018225;28;20061;-77
2021/10/06 05:08:00;;;;;;;933.45;778.35;;;;;;;;;;5001312;28;20092;-76
2021/10/06 05:10:26;;;;;;;932.17;785.95;;;;;;;;;;5002326;28;20433;-78
2021/10/06 05:12:52;;;;;;;931.88;783.90;;;;;;;;;;5000317;28;20034;-76
2021/10/06 05:15:18;;;;;;;936.15;783.10;;;;;;;;;;5002926;28;20375;-76
2021/10/06 05:17:44;;;;;;;933.15;778.40;;;;;;;;;;5003965;28;20049;-78
2021/10/06 05:20:10;;;;;;;933.00;776.58;;;;;;;;;;5002722;28;20076;-78
2021/10/06 05:22:36;;;;;;;936.88;796.17;;;;;;;;;;4996377;28;20025;-77
2021/10/06 05:25:02;;;;;;;926.33;770.67;;;;;;;;;;5003053;28;20036;-78
2021/10/06 05:27:30;;;;;;;929.78;775.22;;;;;;;;;;5002621;28;20041;-77
2021/10/06 05:29:56;;;;;;;939.05;787.70;;;;;;;;;;5014825;28;20029;-78
2021/10/06 05:32:22;;;;;;;936.60;788.70;;;;;;;;;;5003100;28;20363;-78
2021/10/06 05:34:48;;;;;;;938.63;785.55;;;;;;;;;;5000892;28;20029;-77
2021/10/06 05:37:14;;;;;;;935.90;780.67;;;;;;;;;;5002304;28;20108;-80
2021/10/06 05:39:40;;;;;;;934.28;786.47;;;;;;;;;;5000280;28;20117;-81
2021/10/06 05:42:06;;;;;;;936.00;780.42;;;;;;;;;;4986525;28;20455;-80
2021/10/06 05:44:33;;;;;;;929.95;768.97;;;;;;;;;;5002280;28;20120;-79
2021/10/06 05:46:59;;;;;;;934.15;771.20;;;;;;;;;;5001049;28;20588;-79
2021/10/06 05:49:25;;;;;;;937.67;783.20;;;;;;;;;;5001382;28;20034;-80
2021/10/06 05:51:51;;;;;;;933.55;769.70;;;;;;;;;;5001001;28;20117;-78
2021/10/06 05:54:17;;;;;;;935.33;776.78;;;;;;;;;;5001526;28;20395;-78
2021/10/06 05:56:43;;;;;;;931.55;765.92;;;;;;;;;;5001450;28;20080;-80
2021/10/06 05:59:09;;;;;;;939.80;782.70;;;;;;;;;;5001732;28;20042;-78
2021/10/06 06:01:35;;;;;;;931.72;776.10;;;;;;;;;;4999515;28;20022;-79
2021/10/06 06:04:02;;;;;;;927.65;763.08;;;;;;;;;;4998229;28;20077;-81
2021/10/06 06:06:28;;;;;;;931.05;769.95;;;;;;;;;;5002074;28;20034;-79
2021/10/06 06:08:54;;;;;;;954.85;762.65;;;;;;;;;;5002104;28;20057;-81
2021/10/06 06:11:22;;;;;;;931.08;763.58;;;;;;;;;;4992212;28;20073;-82
2021/10/06 06:13:48;;;;;;;936.00;778.83;;;;;;;;;;5018546;28;20027;-80
2021/10/06 06:16:14;;;;;;;932.83;760.92;;;;;;;;;;4994658;28;20030;-79
2021/10/06 06:18:40;;;;;;;935.17;771.70;;;;;;;;;;4999834;28;20036;-80
2021/10/06 06:21:06;;;;;;;929.58;757.47;;;;;;;;;;5012213;28;20057;-79
2021/10/06 06:23:32;;;;;;;931.50;762.20;;;;;;;;;;4998294;28;20145;-80
2021/10/06 06:25:59;;;;;;;935.10;767.35;;;;;;;;;;4999400;28;20417;-79
2021/10/06 06:28:25;;;;;;;942.28;774.70;;;;;;;;;;5003599;28;20038;-79
2021/10/06 06:30:52;;;;;;;937.05;764.30;;;;;;;;;;4997388;28;20048;-80
2021/10/06 06:33:18;;;;;;;938.72;768.67;;;;;;;;;;4997140;28;20371;-80
2021/10/06 06:35:44;;;;;;;939.17;770.92;;;;;;;;;;5004255;28;20061;-79
2021/10/06 06:38:11;;;;;;;931.58;766.55;;;;;;;;;;4997135;28;20038;-81
2021/10/06 06:40:41;;;;;;;933.15;771.00;;;;;;;;;;4995595;28;20042;-82
2021/10/06 06:43:07;;;;;;;927.42;765.75;;;;;;;;;;4999232;28;20045;-80
2021/10/06 06:45:33;;;;;;;933.38;768.97;;;;;;;;;;4997688;28;20034;-82
2021/10/06 06:48:00;;;;;;;931.85;766.15;;;;;;;;;;5004546;28;20069;-79
2021/10/06 06:50:26;;;;;;;932.42;776.70;;;;;;;;;;5004323;28;20508;-80
2021/10/06 06:52:52;;;;;;;934.42;782.50;;;;;;;;;;5002334;28;20808;-79
2021/10/06 06:55:18;;;;;;;934.58;779.17;;;;;;;;;;4981729;28;20034;-80
2021/10/06 06:57:44;;;;;;;932.63;776.33;;;;;;;;;;5003211;28;20036;-80
2021/10/06 07:00:11;;;;;;;932.90;775.58;;;;;;;;;;5007411;28;20058;-79
2021/10/06 07:02:37;;;;;;;931.75;777.17;;;;;;;;;;5002550;28;20026;-79
2021/10/06 07:05:03;;;;;;;933.92;777.08;;;;;;;;;;5006062;28;20389;-80
2021/10/06 07:07:30;;;;;;;936.42;789.22;;;;;;;;;;5006934;28;20065;-82
2021/10/06 07:09:57;;;;;;;942.40;802.13;;;;;;;;;;5005376;28;20034;-80
2021/10/06 07:12:23;;;;;;;938.00;791.88;;;;;;;;;;5010666;28;20042;-80
2021/10/06 07:14:50;;;;;;;945.42;797.25;;;;;;;;;;5005301;28;20030;-81
2021/10/06 07:17:16;;;;;;;942.78;793.95;;;;;;;;;;5013891;28;20026;-80
2021/10/06 07:19:43;;;;;;;946.45;798.67;;;;;;;;;;5012159;28;20548;-81
2021/10/06 07:22:09;;;;;;;945.40;800.97;;;;;;;;;;5012640;28;20030;-83
2021/10/06 07:24:36;;;;;;;939.08;795.72;;;;;;;;;;5006622;28;20663;-80
2021/10/06 07:27:02;;;;;;;937.53;792.45;;;;;;;;;;5012619;28;20036;-82
2021/10/06 07:29:28;;;;;;;943.22;802.20;;;;;;;;;;5000649;28;20395;-81
2021/10/06 07:31:54;;;;;;;937.72;792.47;;;;;;;;;;5002539;28;20025;-82
2021/10/06 07:34:20;;;;;;;947.97;813.22;;;;;;;;;;5012559;28;20034;-82
2021/10/06 07:36:46;;;;;;;940.03;800.78;;;;;;;;;;5007675;28;20103;-81
2021/10/06 07:39:16;;;;;;;945.10;803.60;;;;;;;;;;5010828;28;20751;-82
2021/10/06 07:41:43;;;;;;;945.92;802.05;;;;;;;;;;5020200;28;20650;-83
2021/10/06 07:44:11;;;;;;;945.67;798.38;;;;;;;;;;5013175;28;20025;-84
2021/10/06 07:46:56;;;;;;;944.53;803.83;;;;;;;;;;5011696;28;20025;-79
2021/10/06 07:49:22;;;;;;;941.28;795.80;;;;;;;;;;5004332;28;20588;-85
2021/10/06 07:51:48;;;;;;;942.45;798.25;;;;;;;;;;5010126;28;20089;-84
2021/10/06 07:54:14;;;;;;;946.75;800.65;;;;;;;;;;5005140;28;20041;-85
2021/10/06 07:56:40;;;;;;;947.53;812.00;;;;;;;;;;5021944;28;20479;-87
2021/10/06 07:59:06;;;;;;;949.75;821.78;;;;;;;;;;5006812;28;20689;-86
2021/10/06 08:01:35;;;;;;;950.90;828.17;;;;;;;;;;5012167;28;20149;-81
2021/10/06 08:04:02;;;;;;;946.80;809.00;;;;;;;;;;5005853;28;20022;-87
2021/10/06 08:06:29;;;;;;;950.28;820.50;;;;;;;;;;5009256;28;20049;-82
2021/10/06 08:08:55;;;;;;;949.38;818.25;;;;;;;;;;5003170;28;20802;-84
2021/10/06 08:11:22;;;;;;;948.25;813.05;;;;;;;;;;5000454;28;20529;-84
2021/10/06 08:13:48;;;;;;;950.45;823.90;;;;;;;;;;5011555;28;20100;-80
2021/10/06 08:16:14;;;;;;;945.80;809.72;;;;;;;;;;5006908;28;20046;-82
2021/10/06 08:18:40;;;;;;;948.65;816.50;;;;;;;;;;5009723;28;20422;-84
2021/10/06 08:21:06;;;;;;;946.67;816.88;;;;;;;;;;5010133;28;20605;-85
2021/10/06 08:23:32;;;;;;;949.22;819.85;;;;;;;;;;5011761;28;20556;-83
2021/10/06 08:25:59;;;;;;;948.80;825.92;;;;;;;;;;5005994;28;20037;-83
2021/10/06 08:28:25;;;;;;;945.88;820.47;;;;;;;;;;4996263;28;20045;-85
2021/10/06 08:30:51;;;;;;;951.88;832.45;;;;;;;;;;4992234;28;20034;-82
2021/10/06 08:33:17;;;;;;;951.35;829.13;;;;;;;;;;5008945;28;20037;-81
2021/10/06 08:35:44;;;;;;;947.53;816.65;;;;;;;;;;5006932;28;20560;-85
2021/10/06 08:38:10;;;;;;;954.05;824.75;;;;;;;;;;5005793;28;20652;-80
2021/10/06 08:40:37;;;;;;;949.80;819.78;;;;;;;;;;5014075;28;20034;-80
2021/10/06 08:43:04;;;;;;;953.67;830.72;;;;;;;;;;5013387;28;20175;-80
2021/10/06 08:45:32;;;;;;;954.13;837.08;;;;;;;;;;5013425;28;20037;-84
2021/10/06 08:48:01;;;;;;;957.53;841.15;;;;;;;;;;5012815;28;20080;-83
2021/10/06 08:50:28;;;;;;;949.87;829.43;;;;;;;;;;5013072;28;20030;-78
2021/10/06 08:52:54;;;;;;;956.80;847.25;;;;;;;;;;5007353;28;20030;-83
2021/10/06 08:55:27;;;;;;;968.30;861.90;;;;;;;;;;5010646;28;20293;-81
2021/10/06 08:57:55;;;;;;;973.53;866.65;;;;;;;;;;5012121;28;20449;-84
2021/10/06 09:00:21;;;;;;;990.17;882.67;;;;;;;;;;5006346;28;20062;-85
2021/10/06 09:02:47;;;;;;;993.65;886.40;;;;;;;;;;5004301;28;20544;-83
2021/10/06 09:05:13;;;;;;;1011.00;902.90;;;;;;;;;;5010616;28;20064;-82
2021/10/06 09:07:58;;;;;;;1016.10;907.95;;;;;;;;;;5012845;28;20026;-84
2021/10/06 09:10:26;;;;;;;1024.22;915.45;;;;;;;;;;5010608;28;20026;-77
2021/10/06 09:12:56;;;;;;;1025.55;916.80;;;;;;;;;;5010524;28;20610;-80
2021/10/06 09:15:43;;;;;;;1031.93;922.72;;;;;;;;;;5017107;28;20025;-84
2021/10/06 09:18:13;;;;;;;1022.33;914.00;;;;;;;;;;5022838;28;20040;-82
2021/10/06 09:20:39;;;;;;;1026.28;917.63;;;;;;;;;;5022385;28;20069;-80
2021/10/06 09:23:07;;;;;;;1041.85;932.60;;;;;;;;;;5010179;28;20022;-79
2021/10/06 09:25:46;;;;;;;1037.45;928.55;;;;;;;;;;5012155;28;20105;-81
2021/10/06 09:28:24;;;;;;;1017.00;909.40;;;;;;;;;;5008771;28;20034;-79
2021/10/06 09:31:00;;;;;;;1022.22;914.25;;;;;;;;;;5008498;28;20037;-78
2021/10/06 09:33:39;;;;;;;1019.42;911.53;;;;;;;;;;5010591;28;20038;-77
2021/10/06 09:36:09;;;;;;;1031.78;923.28;;;;;;;;;;5020814;28;20030;-80
2021/10/06 09:38:39;;;;;;;1037.20;928.80;;;;;;;;;;5010688;28;20026;-77
2021/10/06 09:41:17;;;;;;;1024.68;916.78;;;;;;;;;;5018201;28;20029;-79
2021/10/06 09:43:43;;;;;;;1024.38;916.30;;;;;;;;;;5008233;28;20033;-79
2021/10/06 09:46:12;;;;;;;1039.65;930.65;;;;;;;;;;5009419;28;20099;-81
2021/10/06 09:48:39;;;;;;;1052.87;943.83;;;;;;;;;;5008275;28;20041;-80
2021/10/06 09:51:08;;;;;;;1058.53;948.58;;;;;;;;;;5010568;28;20066;-79
2021/10/06 09:53:35;;;;;;;1053.30;943.80;;;;;;;;;;5010037;28;20037;-79
2021/10/06 09:56:04;;;;;;;1057.65;948.33;;;;;;;;;;5010154;28;20078;-80
2021/10/06 09:58:34;;;;;;;1066.13;956.50;;;;;;;;;;5009649;28;20381;-79
2021/10/06 10:01:00;;;;;;;1055.82;946.50;;;;;;;;;;5013197;28;20073;-79
2021/10/06 10:03:27;;;;;;;1047.30;938.92;;;;;;;;;;5010524;28;20038;-79
2021/10/06 10:05:54;;;;;;;1048.82;940.15;;;;;;;;;;5013870;28;20025;-79
2021/10/06 10:08:20;;;;;;;1055.10;946.10;;;;;;;;;;5024078;28;20030;-80
2021/10/06 10:10:51;;;;;;;1055.30;945.72;;;;;;;;;;5010629;28;20030;-79
2021/10/06 10:13:17;;;;;;;;;;;;;;;;;;5010628;28;20402;-79
2021/10/06 10:15:44;;;;;;;1028.70;920.28;;;;;;;;;;5026058;28;19905;-79
2021/10/06 10:18:11;;;;;;;1036.40;927.70;;;;;;;;;;5008850;28;20407;-80
2021/10/06 10:20:42;;;;;;;1045.43;936.35;;;;;;;;;;5010736;28;20034;-78
2021/10/06 10:23:13;;;;;;;1053.85;944.42;;;;;;;;;;5002724;28;20698;-80
2021/10/06 10:25:46;;;;;;;1043.22;934.70;;;;;;;;;;5006459;28;20661;-79
2021/10/06 10:28:13;;;;;;;1058.85;949.08;;;;;;;;;;5009652;28;20037;-78
2021/10/06 10:31:00;;;;;;;1046.03;937.33;;;;;;;;;;5002599;28;20512;-78
2021/10/06 10:33:38;;;;;;;1054.78;945.40;;;;;;;;;;5006832;28;20121;-79
2021/10/06 10:36:04;;;;;;;1059.43;950.15;;;;;;;;;;5019500;28;20050;-80
2021/10/06 10:38:37;;;;;;;1063.03;953.58;;;;;;;;;;5009695;28;20081;-78
2021/10/06 10:41:03;;;;;;;1066.03;956.50;;;;;;;;;;5009361;28;20079;-79
2021/10/06 10:43:33;;;;;;;1078.53;968.72;;;;;;;;;;5014246;28;20022;-78
2021/10/06 10:45:59;;;;;;;1073.10;963.65;;;;;;;;;;5013992;28;20028;-80
2021/10/06 10:48:27;;;;;;;1075.57;966.08;;;;;;;;;;5015337;28;20030;-79
2021/10/06 10:50:53;;;;;;;1072.45;963.25;;;;;;;;;;5010905;28;20072;-80
2021/10/06 10:53:44;;;;;;;1079.90;970.10;;;;;;;;;;5012725;28;20468;-80
2021/10/06 10:56:11;;;;;;;1083.43;973.55;;;;;;;;;;5012175;28;20041;-78
2021/10/06 10:58:41;;;;;;;1085.35;975.22;;;;;;;;;;5010646;28;20030;-79
2021/10/06 11:01:14;;;;;;;1076.38;966.97;;;;;;;;;;5010371;28;20052;-80
2021/10/06 11:04:17;;;;;;;1080.75;970.75;;;;;;;;;;5014145;28;20025;-79
2021/10/06 11:06:45;;;;;;;1069.32;960.03;;;;;;;;;;5011134;28;20037;-78
2021/10/06 11:09:29;;;;;;;1079.78;969.63;;;;;;;;;;5010092;28;20116;-79
2021/10/06 11:12:19;;;;;;;1079.63;969.65;;;;;;;;;;5008006;28;20433;-79
2021/10/06 11:14:47;;;;;;;1070.95;960.58;;;;;;;;;;4990063;28;20520;-78
2021/10/06 11:17:15;;;;;;;1066.07;956.75;;;;;;;;;;5006425;28;20028;-79
2021/10/06 11:19:44;;;;;;;1074.30;964.58;;;;;;;;;;5006591;28;20701;-80
2021/10/06 11:22:22;;;;;;;1090.83;980.10;;;;;;;;;;5005922;28;20026;-80
2021/10/06 11:24:49;;;;;;;1087.82;977.08;;;;;;;;;;5004240;28;20322;-79
2021/10/06 11:27:15;;;;;;;1088.97;978.70;;;;;;;;;;5014097;28;20053;-80
2021/10/06 11:29:42;;;;;;;1091.80;981.20;;;;;;;;;;5028793;28;20125;-79
2021/10/06 11:32:08;;;;;;;1100.00;988.75;;;;;;;;;;5012543;28;20045;-80
2021/10/06 11:34:43;;;;;;;1096.20;985.83;;;;;;;;;;5012874;28;20022;-76
2021/10/06 11:37:16;;;;;;;1091.28;981.45;;;;;;;;;;5012527;28;20029;-80
2021/10/06 11:39:42;;;;;;;1095.78;985.60;;;;;;;;;;5008828;28;20037;-77
2021/10/06 11:42:08;;;;;;;1103.18;992.75;;;;;;;;;;5013418;28;20022;-79
2021/10/06 11:44:34;;;;;;;1102.13;992.17;;;;;;;;;;5013070;28;20030;-79
2021/10/06 11:47:01;;;;;;;1107.13;995.88;;;;;;;;;;5011679;28;20038;-80
2021/10/06 11:49:29;;;;;;;1109.13;996.85;;;;;;;;;;5011083;28;20022;-78
2021/10/06 11:51:55;;;;;;;1114.95;999.17;;;;;;;;;;5009954;28;21412;-79
2021/10/06 11:54:25;;;;;;;1119.80;999.90;;;;;;;;;;5011317;28;20093;-79
2021/10/06 11:56:52;;;;;;;1115.95;999.17;;;;;;;;;;5011492;28;20026;-79
2021/10/06 11:59:20;;;;;;;1123.50;999.90;;;;;;;;;;5012087;28;20034;-81
2021/10/06 12:01:53;;;;;;;1127.35;999.90;;;;;;;;;;5011028;28;20036;-80
2021/10/06 12:04:20;;;;;;;1123.00;999.90;;;;;;;;;;5013342;28;20030;-80
2021/10/06 12:06:49;;;;;;;1127.07;999.90;;;;;;;;;;5013727;28;20029;-78
2021/10/06 12:09:15;;;;;;;1125.65;999.90;;;;;;;;;;5010601;28;20072;-77
2021/10/06 12:11:43;;;;;;;1122.47;999.90;;;;;;;;;;5011788;28;20026;-78
2021/10/06 12:14:22;;;;;;;1113.28;998.30;;;;;;;;;;5014138;28;20014;-80
2021/10/06 12:17:17;;;;;;;1114.53;999.03;;;;;;;;;;5014160;28;20076;-79
2021/10/06 12:19:53;;;;;;;1115.80;999.33;;;;;;;;;;4996755;28;20030;-79
2021/10/06 12:22:19;;;;;;;1118.50;999.88;;;;;;;;;;5008728;28;20018;-78
2021/10/06 12:24:47;;;;;;;1105.63;994.35;;;;;;;;;;5001337;28;20032;-77
2021/10/06 12:27:29;;;;;;;1111.72;997.55;;;;;;;;;;5007176;28;20341;-77
2021/10/06 12:30:28;;;;;;;1113.18;998.25;;;;;;;;;;5000847;28;20022;-79
2021/10/06 12:33:08;;;;;;;1108.85;996.13;;;;;;;;;;4968341;28;20052;-78
2021/10/06 12:35:39;;;;;;;1114.07;998.88;;;;;;;;;;5003146;28;20038;-79
2021/10/06 12:38:05;;;;;;;;;;;;;;;;;;5011885;28;20036;-79
2021/10/06 12:40:41;;;;;;;1096.50;985.97;;;;;;;;;;5013298;28;19905;-79
2021/10/06 12:43:12;;;;;;;1125.93;999.90;;;;;;;;;;5011672;28;20026;-79
2021/10/06 12:45:57;;;;;;;1143.90;999.90;;;;;;;;;;5012984;28;20030;-77
2021/10/06 12:48:33;;;;;;;1138.78;999.90;;;;;;;;;;5010188;28;20030;-78
2021/10/06 12:50:59;;;;;;;1126.38;999.90;;;;;;;;;;5010696;28;20026;-79
2021/10/06 12:53:27;;;;;;;1126.00;999.90;;;;;;;;;;5010656;28;20541;-79
2021/10/06 12:55:53;;;;;;;1126.18;999.90;;;;;;;;;;5011794;28;20473;-79
2021/10/06 12:58:19;;;;;;;1125.18;999.90;;;;;;;;;;5012218;28;20061;-78
2021/10/06 13:00:45;;;;;;;1118.28;999.70;;;;;;;;;;5011745;28;20073;-80
2021/10/06 13:03:11;;;;;;;1120.53;999.90;;;;;;;;;;5007694;28;20083;-80
2021/10/06 13:05:38;;;;;;;1122.63;999.90;;;;;;;;;;5015273;28;20033;-80
2021/10/06 13:08:18;;;;;;;1117.70;999.58;;;;;;;;;;5012273;28;20080;-80
2021/10/06 13:10:44;;;;;;;1111.80;998.23;;;;;;;;;;5023578;28;20052;-80
2021/10/06 13:13:11;;;;;;;1122.93;999.90;;;;;;;;;;5023816;28;20159;-82
2021/10/06 13:15:38;;;;;;;1118.57;999.83;;;;;;;;;;5010848;28;20032;-83
2021/10/06 13:18:04;;;;;;;1120.43;999.85;;;;;;;;;;5011789;28;20033;-83
2021/10/06 13:20:30;;;;;;;1122.15;999.90;;;;;;;;;;5013170;28;20037;-83
2021/10/06 13:22:56;;;;;;;1124.05;999.90;;;;;;;;;;5011435;28;20053;-83
2021/10/06 13:25:22;;;;;;;1119.88;999.90;;;;;;;;;;5018260;28;20067;-83
2021/10/06 13:27:48;;;;;;;1117.20;999.25;;;;;;;;;;5015469;28;20022;-84
2021/10/06 13:30:15;;;;;;;1123.53;999.90;;;;;;;;;;5016972;28;20389;-83
2021/10/06 13:32:41;;;;;;;1131.03;999.90;;;;;;;;;;5022770;28;20405;-84
2021/10/06 13:35:08;;;;;;;1124.55;999.90;;;;;;;;;;5011000;28;20108;-82
2021/10/06 13:37:34;;;;;;;1128.97;999.90;;;;;;;;;;5010011;28;21799;-80
2021/10/06 13:40:00;;;;;;;1126.68;999.90;;;;;;;;;;5011031;28;20300;-82
2021/10/06 13:42:27;;;;;;;1134.70;999.90;;;;;;;;;;5011450;28;20402;-82
2021/10/06 13:44:54;;;;;;;1141.22;999.90;;;;;;;;;;5010946;28;20613;-81
2021/10/06 13:47:20;;;;;;;1144.47;999.90;;;;;;;;;;5012066;28;20080;-82
2021/10/06 13:49:47;;;;;;;1140.55;999.90;;;;;;;;;;5010791;28;20025;-82
2021/10/06 13:52:14;;;;;;;1147.78;999.90;;;;;;;;;;5010902;28;20402;-81